createdAt,value
2018-09-26T00:00:16.515Z,0.00
2018-09-26T00:01:16.531Z,0.00
2018-09-26T00:02:16.547Z,0.00
2018-09-26T00:03:16.558Z,0.00
2018-09-26T00:04:16.576Z,0.00
2018-09-26T00:05:16.588Z,0.00
2018-09-26T00:06:16.607Z,0.00
2018-09-26T00:07:16.620Z,0.00
2018-09-26T00:08:16.633Z,0.00
2018-09-26T00:09:16.650Z,0.00
2018-09-26T00:10:16.663Z,0.00
2018-09-26T00:11:16.685Z,0.00
2018-09-26T00:12:16.697Z,0.00
2018-09-26T00:13:16.710Z,0.00
2018-09-26T00:14:16.727Z,0.00
2018-09-26T00:15:16.742Z,0.00
2018-09-26T00:16:16.757Z,0.00
2018-09-26T00:17:16.768Z,0.00
2018-09-26T00:18:16.787Z,0.00
2018-09-26T00:19:16.801Z,0.00
2018-09-26T00:20:16.815Z,0.00
2018-09-26T00:21:16.834Z,0.00
2018-09-26T00:22:16.848Z,0.00
2018-09-26T00:23:16.860Z,0.00
2018-09-26T00:24:16.877Z,0.00
2018-09-26T00:25:16.893Z,0.00
2018-09-26T00:26:16.904Z,0.00
2018-09-26T00:27:16.920Z,0.00
2018-09-26T00:28:16.934Z,0.00
2018-09-26T00:29:16.953Z,0.00
2018-09-26T00:30:16.964Z,0.00
2018-09-26T00:31:16.980Z,0.00
2018-09-26T00:32:16.992Z,0.00
2018-09-26T00:33:17.011Z,0.00
2018-09-26T00:34:17.023Z,0.00
2018-09-26T00:35:17.038Z,0.00
2018-09-26T00:36:17.191Z,0.00
2018-09-26T00:37:17.072Z,0.00
2018-09-26T00:38:17.081Z,0.00
2018-09-26T00:39:17.098Z,0.00
2018-09-26T00:40:17.112Z,0.00
2018-09-26T00:41:17.132Z,0.00
2018-09-26T00:42:17.145Z,0.00
2018-09-26T00:43:17.162Z,0.00
2018-09-26T00:44:17.173Z,0.00
2018-09-26T00:45:17.189Z,0.00
2018-09-26T00:46:17.202Z,0.00
2018-09-26T00:47:17.218Z,0.00
2018-09-26T00:48:17.233Z,0.00
2018-09-26T00:49:17.248Z,0.00
2018-09-26T00:50:17.262Z,0.00
2018-09-26T00:51:17.280Z,0.00
2018-09-26T00:52:17.291Z,0.00
2018-09-26T00:53:17.305Z,0.00
2018-09-26T00:54:17.323Z,0.00
2018-09-26T00:55:17.334Z,0.00
2018-09-26T00:56:17.348Z,0.00
2018-09-26T00:57:17.365Z,0.00
2018-09-26T00:58:17.379Z,0.00
2018-09-26T00:59:17.394Z,0.00
2018-09-26T01:00:17.409Z,0.00
2018-09-26T01:01:17.427Z,0.00
2018-09-26T01:02:17.440Z,0.00
2018-09-26T01:03:17.453Z,0.00
2018-09-26T01:04:17.468Z,0.00
2018-09-26T01:05:17.482Z,0.00
2018-09-26T01:06:17.500Z,0.00
2018-09-26T01:07:17.515Z,0.00
2018-09-26T01:08:17.525Z,0.00
2018-09-26T01:09:17.542Z,0.00
2018-09-26T01:10:17.559Z,0.00
2018-09-26T01:11:17.571Z,0.00
2018-09-26T01:12:17.589Z,0.00
2018-09-26T01:13:17.605Z,0.00
2018-09-26T01:14:17.621Z,0.00
2018-09-26T01:15:17.633Z,0.00
2018-09-26T01:16:17.645Z,0.00
2018-09-26T01:17:17.659Z,0.00
2018-09-26T01:18:17.677Z,0.00
2018-09-26T01:19:17.693Z,0.00
2018-09-26T01:20:17.708Z,0.00
2018-09-26T01:21:17.721Z,0.00
2018-09-26T01:22:17.737Z,0.00
2018-09-26T01:23:17.748Z,0.00
2018-09-26T01:24:17.762Z,0.00
2018-09-26T01:25:17.776Z,0.00
2018-09-26T01:26:17.794Z,0.00
2018-09-26T01:27:17.808Z,0.00
2018-09-26T01:28:17.821Z,0.00
2018-09-26T01:29:17.836Z,0.00
2018-09-26T01:30:17.851Z,0.00
2018-09-26T01:31:17.866Z,0.00
2018-09-26T01:32:17.881Z,0.00
2018-09-26T01:33:17.895Z,0.00
2018-09-26T01:34:17.908Z,0.00
2018-09-26T01:35:17.924Z,0.00
2018-09-26T01:36:17.936Z,0.00
2018-09-26T01:37:17.954Z,0.00
2018-09-26T01:38:17.965Z,0.00
2018-09-26T01:39:17.982Z,0.00
2018-09-26T01:40:17.996Z,0.00
2018-09-26T01:41:18.055Z,0.00
2018-09-26T01:42:18.026Z,0.00
2018-09-26T01:43:18.037Z,0.00
2018-09-26T01:44:18.052Z,0.00
2018-09-26T01:45:18.069Z,0.00
2018-09-26T01:46:18.082Z,0.00
2018-09-26T01:47:18.097Z,0.00
2018-09-26T01:48:18.110Z,0.00
2018-09-26T01:49:18.123Z,0.00
2018-09-26T01:50:18.141Z,0.00
2018-09-26T01:51:18.153Z,0.00
2018-09-26T01:52:18.164Z,0.00
2018-09-26T01:53:18.183Z,0.00
2018-09-26T01:54:18.196Z,0.00
2018-09-26T01:55:18.212Z,0.00
2018-09-26T01:56:18.223Z,0.00
2018-09-26T01:57:18.237Z,0.00
2018-09-26T01:58:18.251Z,0.00
2018-09-26T01:59:18.268Z,0.00
2018-09-26T02:00:18.279Z,0.00
2018-09-26T02:01:18.295Z,0.00
2018-09-26T02:02:18.308Z,0.00
2018-09-26T02:03:18.324Z,0.00
2018-09-26T02:04:18.339Z,0.00
2018-09-26T02:05:18.350Z,0.00
2018-09-26T02:06:18.366Z,0.00
2018-09-26T02:07:18.380Z,0.00
2018-09-26T02:08:18.393Z,0.00
2018-09-26T02:09:18.407Z,0.00
2018-09-26T02:10:18.423Z,0.00
2018-09-26T02:11:18.436Z,0.00
2018-09-26T02:12:18.452Z,0.00
2018-09-26T02:13:18.464Z,0.00
2018-09-26T02:14:18.477Z,0.00
2018-09-26T02:15:18.491Z,0.00
2018-09-26T02:16:18.505Z,0.00
2018-09-26T02:17:18.519Z,0.00
2018-09-26T02:18:18.532Z,0.00
2018-09-26T02:19:18.549Z,0.00
2018-09-26T02:20:18.561Z,0.00
2018-09-26T02:21:18.577Z,0.00
2018-09-26T02:22:18.593Z,0.00
2018-09-26T02:23:18.603Z,0.00
2018-09-26T02:24:18.621Z,0.00
2018-09-26T02:25:18.629Z,0.00
2018-09-26T02:26:18.645Z,0.00
2018-09-26T02:27:18.659Z,0.00
2018-09-26T02:28:18.676Z,0.00
2018-09-26T02:29:18.688Z,0.00
2018-09-26T02:30:18.703Z,0.00
2018-09-26T02:31:18.714Z,0.00
2018-09-26T02:32:18.730Z,0.00
2018-09-26T02:33:18.740Z,0.00
2018-09-26T02:34:18.755Z,0.00
2018-09-26T02:35:18.768Z,0.00
2018-09-26T02:36:18.783Z,0.00
2018-09-26T02:37:18.797Z,0.00
2018-09-26T02:38:18.811Z,0.00
2018-09-26T02:39:18.827Z,0.00
2018-09-26T02:40:18.839Z,0.00
2018-09-26T02:41:18.853Z,0.00
2018-09-26T02:42:18.870Z,0.00
2018-09-26T02:43:18.881Z,0.00
2018-09-26T02:44:18.895Z,0.00
2018-09-26T02:45:18.908Z,0.00
2018-09-26T02:46:18.921Z,0.00
2018-09-26T02:47:18.936Z,0.00
2018-09-26T02:48:18.952Z,0.00
2018-09-26T02:49:18.965Z,0.00
2018-09-26T02:50:18.976Z,0.00
2018-09-26T02:51:18.993Z,0.00
2018-09-26T02:52:19.004Z,0.00
2018-09-26T02:53:19.018Z,0.00
2018-09-26T02:54:19.033Z,0.00
2018-09-26T02:55:19.047Z,0.00
2018-09-26T02:56:19.061Z,0.00
2018-09-26T02:57:19.075Z,0.00
2018-09-26T02:58:19.090Z,0.00
2018-09-26T02:59:19.102Z,0.00
2018-09-26T03:00:19.120Z,0.00
2018-09-26T03:01:19.135Z,0.00
2018-09-26T03:02:19.145Z,0.00
2018-09-26T03:03:19.158Z,0.00
2018-09-26T03:04:19.171Z,0.00
2018-09-26T03:05:19.233Z,0.00
2018-09-26T03:06:19.200Z,0.00
2018-09-26T03:07:19.216Z,0.00
2018-09-26T03:08:19.229Z,0.00
2018-09-26T03:09:19.243Z,0.00
2018-09-26T03:10:19.255Z,0.00
2018-09-26T03:11:19.270Z,0.00
2018-09-26T03:12:19.282Z,0.00
2018-09-26T03:13:19.295Z,0.00
2018-09-26T03:14:19.311Z,0.00
2018-09-26T03:15:19.350Z,0.00
2018-09-26T03:16:19.341Z,0.00
2018-09-26T03:17:19.352Z,0.00
2018-09-26T03:18:19.367Z,0.00
2018-09-26T03:19:19.380Z,0.00
2018-09-26T03:20:19.394Z,0.00
2018-09-26T03:21:19.410Z,0.00
2018-09-26T03:22:19.421Z,0.00
2018-09-26T03:23:19.442Z,0.00
2018-09-26T03:24:19.449Z,0.00
2018-09-26T03:25:19.463Z,0.00
2018-09-26T03:26:19.479Z,0.00
2018-09-26T03:27:19.520Z,0.00
2018-09-26T03:28:19.505Z,0.00
2018-09-26T03:29:19.520Z,0.00
2018-09-26T03:30:19.532Z,0.00
2018-09-26T03:31:19.547Z,0.00
2018-09-26T03:32:19.561Z,0.00
2018-09-26T03:33:19.575Z,0.00
2018-09-26T03:34:19.590Z,0.00
2018-09-26T03:35:19.603Z,0.00
2018-09-26T03:36:19.617Z,0.00
2018-09-26T03:37:19.633Z,0.00
2018-09-26T03:38:19.644Z,0.00
2018-09-26T03:39:19.659Z,0.00
2018-09-26T03:40:19.682Z,0.00
2018-09-26T03:41:19.685Z,0.00
2018-09-26T03:42:19.699Z,0.00
2018-09-26T03:43:19.719Z,0.00
2018-09-26T03:44:19.730Z,0.00
2018-09-26T03:45:19.743Z,0.00
2018-09-26T03:46:19.754Z,0.00
2018-09-26T03:47:19.771Z,0.00
2018-09-26T03:48:19.785Z,0.00
2018-09-26T03:49:19.797Z,0.00
2018-09-26T03:50:19.812Z,0.00
2018-09-26T03:51:19.826Z,0.00
2018-09-26T03:52:19.849Z,0.00
2018-09-26T03:53:19.852Z,0.00
2018-09-26T03:54:19.867Z,0.00
2018-09-26T03:55:19.881Z,0.00
2018-09-26T03:56:19.894Z,0.00
2018-09-26T03:57:19.908Z,0.00
2018-09-26T03:58:19.923Z,0.00
2018-09-26T03:59:19.955Z,0.00
2018-09-26T04:00:19.951Z,0.00
2018-09-26T04:01:19.964Z,0.00
2018-09-26T04:02:19.981Z,0.00
2018-09-26T04:03:19.993Z,0.00
2018-09-26T04:04:20.005Z,0.00
2018-09-26T04:05:20.019Z,0.00
2018-09-26T04:06:20.034Z,0.00
2018-09-26T04:07:20.047Z,0.00
2018-09-26T04:08:20.060Z,0.00
2018-09-26T04:09:20.077Z,0.00
2018-09-26T04:10:20.091Z,0.00
2018-09-26T04:11:20.104Z,0.00
2018-09-26T04:12:20.128Z,0.00
2018-09-26T04:13:20.130Z,0.00
2018-09-26T04:14:20.145Z,0.00
2018-09-26T04:15:20.159Z,0.00
2018-09-26T04:16:20.173Z,0.00
2018-09-26T04:17:20.186Z,0.00
2018-09-26T04:18:20.202Z,0.00
2018-09-26T04:19:20.213Z,0.00
2018-09-26T04:20:20.314Z,0.00
2018-09-26T04:21:20.247Z,0.00
2018-09-26T04:22:20.258Z,0.00
2018-09-26T04:23:20.270Z,0.00
2018-09-26T04:24:20.283Z,0.00
2018-09-26T04:25:20.297Z,0.00
2018-09-26T04:26:20.378Z,0.00
2018-09-26T04:27:20.600Z,0.00
2018-09-26T04:28:20.339Z,0.00
2018-09-26T04:29:20.352Z,0.00
2018-09-26T04:30:20.399Z,0.00
2018-09-26T04:31:20.381Z,0.00
2018-09-26T04:32:20.397Z,0.00
2018-09-26T04:33:20.547Z,0.00
2018-09-26T04:34:20.422Z,0.00
2018-09-26T04:35:20.436Z,0.00
2018-09-26T04:36:20.452Z,0.00
2018-09-26T04:37:20.464Z,0.00
2018-09-26T04:38:20.477Z,0.00
2018-09-26T04:39:20.491Z,0.00
2018-09-26T04:40:20.505Z,0.00
2018-09-26T04:41:20.517Z,0.00
2018-09-26T04:42:20.531Z,0.00
2018-09-26T04:43:20.598Z,0.00
2018-09-26T04:44:20.560Z,0.00
2018-09-26T04:45:20.573Z,0.00
2018-09-26T04:46:20.587Z,0.00
2018-09-26T04:47:20.600Z,0.00
2018-09-26T04:48:20.616Z,0.00
2018-09-26T04:49:20.629Z,0.00
2018-09-26T04:50:20.645Z,0.00
2018-09-26T04:51:20.658Z,0.00
2018-09-26T04:52:20.668Z,0.00
2018-09-26T04:53:20.689Z,0.00
2018-09-26T04:54:20.697Z,0.00
2018-09-26T04:55:20.716Z,0.00
2018-09-26T04:56:20.728Z,0.00
2018-09-26T04:57:20.744Z,0.00
2018-09-26T04:58:20.792Z,0.00
2018-09-26T04:59:20.768Z,0.00
2018-09-26T05:00:20.779Z,0.00
2018-09-26T05:01:20.794Z,0.00
2018-09-26T05:02:20.807Z,0.00
2018-09-26T05:03:20.822Z,0.00
2018-09-26T05:04:20.837Z,0.00
2018-09-26T05:05:20.849Z,0.00
2018-09-26T05:06:20.863Z,0.00
2018-09-26T05:07:20.877Z,0.00
2018-09-26T05:08:20.896Z,0.00
2018-09-26T05:09:20.908Z,0.00
2018-09-26T05:10:20.918Z,0.00
2018-09-26T05:11:20.935Z,0.00
2018-09-26T05:12:20.947Z,0.00
2018-09-26T05:13:20.960Z,0.00
2018-09-26T05:14:20.972Z,0.00
2018-09-26T05:15:20.989Z,0.00
2018-09-26T05:16:21.003Z,0.00
2018-09-26T05:17:21.013Z,0.00
2018-09-26T05:18:21.028Z,0.00
2018-09-26T05:19:21.043Z,0.00
2018-09-26T05:20:21.060Z,0.00
2018-09-26T05:21:21.069Z,0.00
2018-09-26T05:22:21.085Z,0.00
2018-09-26T05:23:21.100Z,0.00
2018-09-26T05:24:21.113Z,0.00
2018-09-26T05:25:21.126Z,0.00
2018-09-26T05:26:21.141Z,0.00
2018-09-26T05:27:21.152Z,0.00
2018-09-26T05:28:21.166Z,0.00
2018-09-26T05:29:21.183Z,0.00
2018-09-26T05:30:21.197Z,0.00
2018-09-26T05:31:21.207Z,0.00
2018-09-26T05:32:21.219Z,0.00
2018-09-26T05:33:21.237Z,0.00
2018-09-26T05:34:21.253Z,0.00
2018-09-26T05:35:21.262Z,0.00
2018-09-26T05:36:21.276Z,0.00
2018-09-26T05:37:21.288Z,0.00
2018-09-26T05:38:21.347Z,0.00
2018-09-26T05:39:21.317Z,0.00
2018-09-26T05:40:21.332Z,0.00
2018-09-26T05:41:21.348Z,0.00
2018-09-26T05:42:21.356Z,0.00
2018-09-26T05:43:21.374Z,0.00
2018-09-26T05:44:21.384Z,0.00
2018-09-26T05:45:21.399Z,0.00
2018-09-26T05:46:21.413Z,0.00
2018-09-26T05:47:21.431Z,0.00
2018-09-26T05:48:21.440Z,0.00
2018-09-26T05:49:21.456Z,0.00
2018-09-26T05:50:21.536Z,0.00
2018-09-26T05:51:21.480Z,0.00
2018-09-26T05:52:21.495Z,0.00
2018-09-26T05:53:21.513Z,0.00
2018-09-26T05:54:21.528Z,0.00
2018-09-26T05:55:21.535Z,0.00
2018-09-26T05:56:21.548Z,0.00
2018-09-26T05:57:21.562Z,0.00
2018-09-26T05:58:21.578Z,0.00
2018-09-26T05:59:21.594Z,0.00
2018-09-26T06:00:21.605Z,0.00
2018-09-26T06:01:21.621Z,0.00
2018-09-26T06:02:21.633Z,0.00
2018-09-26T06:03:21.648Z,0.00
2018-09-26T06:04:21.665Z,0.00
2018-09-26T06:05:21.720Z,0.00
2018-09-26T06:06:21.686Z,0.00
2018-09-26T06:07:21.702Z,0.00
2018-09-26T06:08:21.718Z,0.00
2018-09-26T06:09:21.728Z,0.00
2018-09-26T06:10:21.742Z,0.00
2018-09-26T06:11:21.811Z,0.00
2018-09-26T06:12:21.770Z,0.00
2018-09-26T06:13:21.785Z,0.00
2018-09-26T06:14:21.799Z,0.00
2018-09-26T06:15:21.811Z,0.00
2018-09-26T06:16:21.831Z,0.00
2018-09-26T06:17:21.837Z,0.00
2018-09-26T06:18:21.854Z,0.00
2018-09-26T06:19:21.883Z,0.00
2018-09-26T06:20:21.881Z,0.00
2018-09-26T06:21:21.894Z,0.00
2018-09-26T06:22:21.909Z,0.00
2018-09-26T06:23:21.923Z,0.00
2018-09-26T06:24:21.936Z,0.00
2018-09-26T06:25:21.956Z,0.00
2018-09-26T06:26:21.962Z,0.00
2018-09-26T06:27:21.980Z,0.00
2018-09-26T06:28:21.991Z,0.00
2018-09-26T06:29:22.005Z,0.00
2018-09-26T06:30:22.018Z,0.00
2018-09-26T06:31:22.032Z,0.00
2018-09-26T06:32:22.044Z,0.00
2018-09-26T06:33:22.058Z,0.00
2018-09-26T06:34:22.078Z,0.00
2018-09-26T06:35:22.089Z,0.00
2018-09-26T06:36:22.103Z,0.00
2018-09-26T06:37:22.113Z,0.00
2018-09-26T06:38:22.130Z,0.00
2018-09-26T06:39:22.144Z,0.00
2018-09-26T06:40:22.161Z,0.00
2018-09-26T06:41:22.170Z,0.00
2018-09-26T06:42:22.185Z,0.00
2018-09-26T06:43:22.197Z,0.00
2018-09-26T06:44:22.213Z,0.00
2018-09-26T06:45:22.225Z,0.00
2018-09-26T06:46:22.239Z,0.00
2018-09-26T06:47:22.305Z,0.00
2018-09-26T06:48:22.269Z,0.00
2018-09-26T06:49:22.278Z,0.00
2018-09-26T06:50:22.296Z,0.00
2018-09-26T06:51:22.308Z,0.00
2018-09-26T06:52:22.320Z,0.00
2018-09-26T06:53:22.335Z,0.00
2018-09-26T06:54:22.349Z,0.00
2018-09-26T06:55:22.363Z,5.63
2018-09-26T06:56:22.375Z,5.63
2018-09-26T06:57:22.389Z,5.63
2018-09-26T06:58:22.404Z,5.63
2018-09-26T06:59:22.417Z,11.25
2018-09-26T07:00:22.509Z,11.25
2018-09-26T07:01:22.446Z,11.25
2018-09-26T07:02:22.460Z,11.25
2018-09-26T07:03:22.476Z,11.25
2018-09-26T07:04:22.488Z,11.25
2018-09-26T07:05:22.500Z,11.25
2018-09-26T07:06:22.517Z,11.25
2018-09-26T07:07:22.531Z,11.25
2018-09-26T07:08:22.543Z,11.25
2018-09-26T07:09:22.556Z,11.25
2018-09-26T07:10:22.589Z,11.25
2018-09-26T07:11:22.584Z,11.25
2018-09-26T07:12:22.597Z,11.25
2018-09-26T07:13:22.611Z,11.25
2018-09-26T07:14:22.627Z,11.25
2018-09-26T07:15:22.642Z,11.25
2018-09-26T07:16:22.656Z,11.25
2018-09-26T07:17:22.668Z,11.25
2018-09-26T07:18:22.685Z,11.25
2018-09-26T07:19:22.699Z,11.25
2018-09-26T07:20:22.711Z,11.25
2018-09-26T07:21:22.725Z,11.25
2018-09-26T07:22:22.741Z,11.25
2018-09-26T07:23:22.756Z,11.25
2018-09-26T07:24:22.766Z,11.25
2018-09-26T07:25:22.789Z,11.25
2018-09-26T07:26:22.795Z,11.25
2018-09-26T07:27:22.810Z,11.25
2018-09-26T07:28:22.822Z,11.25
2018-09-26T07:29:22.836Z,11.25
2018-09-26T07:30:22.852Z,11.25
2018-09-26T07:31:22.916Z,11.25
2018-09-26T07:32:22.881Z,11.25
2018-09-26T07:33:22.896Z,11.25
2018-09-26T07:34:22.913Z,11.25
2018-09-26T07:35:22.922Z,11.25
2018-09-26T07:36:22.935Z,11.25
2018-09-26T07:37:22.951Z,11.25
2018-09-26T07:38:22.978Z,11.25
2018-09-26T07:39:22.981Z,11.25
2018-09-26T07:40:22.993Z,11.25
2018-09-26T07:41:23.005Z,11.25
2018-09-26T07:42:23.024Z,11.25
2018-09-26T07:43:23.035Z,11.25
2018-09-26T07:44:23.047Z,11.25
2018-09-26T07:45:23.135Z,11.25
2018-09-26T07:46:23.078Z,11.25
2018-09-26T07:47:23.092Z,11.25
2018-09-26T07:48:23.108Z,11.25
2018-09-26T07:49:23.120Z,11.25
2018-09-26T07:50:23.135Z,11.25
2018-09-26T07:51:23.150Z,11.25
2018-09-26T07:52:23.164Z,11.25
2018-09-26T07:53:23.176Z,11.25
2018-09-26T07:54:23.190Z,11.25
2018-09-26T07:55:23.207Z,11.25
2018-09-26T07:56:23.218Z,11.25
2018-09-26T07:57:23.237Z,11.25
2018-09-26T07:58:23.248Z,11.25
2018-09-26T07:59:23.265Z,11.25
2018-09-26T08:00:23.276Z,11.25
2018-09-26T08:01:23.293Z,11.25
2018-09-26T08:02:23.312Z,11.25
2018-09-26T08:03:23.326Z,11.25
2018-09-26T08:04:23.335Z,11.25
2018-09-26T08:05:23.350Z,11.25
2018-09-26T08:06:23.367Z,11.25
2018-09-26T08:07:23.379Z,16.88
2018-09-26T08:08:23.394Z,16.88
2018-09-26T08:09:23.409Z,16.88
2018-09-26T08:10:23.436Z,16.88
2018-09-26T08:11:23.558Z,16.88
2018-09-26T08:12:23.450Z,16.88
2018-09-26T08:13:23.469Z,16.88
2018-09-26T08:14:23.480Z,16.88
2018-09-26T08:15:23.495Z,16.88
2018-09-26T08:16:23.510Z,16.88
2018-09-26T08:17:23.525Z,16.88
2018-09-26T08:18:23.550Z,16.88
2018-09-26T08:19:23.554Z,16.88
2018-09-26T08:20:23.569Z,16.88
2018-09-26T08:21:23.584Z,16.88
2018-09-26T08:22:23.598Z,16.88
2018-09-26T08:23:23.617Z,16.88
2018-09-26T08:24:23.627Z,16.88
2018-09-26T08:25:23.642Z,16.88
2018-09-26T08:26:23.658Z,16.88
2018-09-26T08:27:23.677Z,16.88
2018-09-26T08:28:23.690Z,16.88
2018-09-26T08:29:23.704Z,16.88
2018-09-26T08:30:23.720Z,16.88
2018-09-26T08:31:23.738Z,16.88
2018-09-26T08:32:23.750Z,16.88
2018-09-26T08:33:23.765Z,16.88
2018-09-26T08:34:23.779Z,16.88
2018-09-26T08:35:23.792Z,16.88
2018-09-26T08:36:23.806Z,16.88
2018-09-26T08:37:23.824Z,16.88
2018-09-26T08:38:23.837Z,16.88
2018-09-26T08:39:23.854Z,16.88
2018-09-26T08:40:23.868Z,16.88
2018-09-26T08:41:23.883Z,16.88
2018-09-26T08:42:23.899Z,16.88
2018-09-26T08:43:23.921Z,16.88
2018-09-26T08:44:23.935Z,16.88
2018-09-26T08:45:23.948Z,16.88
2018-09-26T08:46:23.960Z,16.88
2018-09-26T08:47:23.974Z,16.88
2018-09-26T08:48:23.990Z,16.88
2018-09-26T08:49:24.008Z,16.88
2018-09-26T08:50:24.023Z,16.88
2018-09-26T08:51:24.041Z,16.88
2018-09-26T08:52:24.053Z,16.88
2018-09-26T08:53:24.068Z,22.50
2018-09-26T08:54:24.084Z,22.50
2018-09-26T08:55:24.103Z,22.50
2018-09-26T08:56:24.120Z,22.50
2018-09-26T08:57:24.131Z,22.50
2018-09-26T08:58:24.146Z,22.50
2018-09-26T08:59:24.163Z,22.50
2018-09-26T09:00:24.177Z,22.50
2018-09-26T09:01:24.193Z,22.50
2018-09-26T09:02:24.210Z,22.50
2018-09-26T09:03:24.225Z,22.50
2018-09-26T09:04:24.242Z,22.50
2018-09-26T09:05:24.257Z,22.50
2018-09-26T09:06:24.279Z,22.50
2018-09-26T09:07:24.287Z,22.50
2018-09-26T09:08:24.302Z,22.50
2018-09-26T09:09:24.318Z,22.50
2018-09-26T09:10:24.336Z,22.50
2018-09-26T09:11:24.352Z,22.50
2018-09-26T09:12:24.367Z,22.50
2018-09-26T09:13:24.383Z,22.50
2018-09-26T09:14:24.484Z,22.50
2018-09-26T09:15:24.416Z,22.50
2018-09-26T09:16:24.432Z,22.50
2018-09-26T09:17:24.448Z,22.50
2018-09-26T09:18:24.473Z,28.13
2018-09-26T09:19:24.487Z,28.13
2018-09-26T09:20:24.619Z,28.13
2018-09-26T09:21:24.514Z,28.13
2018-09-26T09:22:24.531Z,28.13
2018-09-26T09:23:24.544Z,28.13
2018-09-26T09:24:24.560Z,28.13
2018-09-26T09:25:24.576Z,28.13
2018-09-26T09:26:24.662Z,28.13
2018-09-26T09:27:24.632Z,33.75
2018-09-26T09:28:24.627Z,33.75
2018-09-26T09:29:24.643Z,33.75
2018-09-26T09:30:24.662Z,33.75
2018-09-26T09:31:24.682Z,33.75
2018-09-26T09:32:24.745Z,33.75
2018-09-26T09:33:24.712Z,33.75
2018-09-26T09:34:24.728Z,33.75
2018-09-26T09:35:24.744Z,33.75
2018-09-26T09:36:24.797Z,39.38
2018-09-26T09:37:24.777Z,33.75
2018-09-26T09:38:24.956Z,33.75
2018-09-26T09:39:24.814Z,33.75
2018-09-26T09:40:24.831Z,33.75
2018-09-26T09:41:24.847Z,33.75
2018-09-26T09:42:24.863Z,33.75
2018-09-26T09:43:24.879Z,33.75
2018-09-26T09:44:25.001Z,33.75
2018-09-26T09:45:24.915Z,33.75
2018-09-26T09:46:24.935Z,33.75
2018-09-26T09:47:24.952Z,39.38
2018-09-26T09:48:24.968Z,39.38
2018-09-26T09:49:24.987Z,39.38
2018-09-26T09:50:25.104Z,39.38
2018-09-26T09:51:25.127Z,39.38
2018-09-26T09:52:25.036Z,39.38
2018-09-26T09:53:25.053Z,39.38
2018-09-26T09:54:25.072Z,39.38
2018-09-26T09:55:25.089Z,39.38
2018-09-26T09:56:25.234Z,39.38
2018-09-26T09:57:25.125Z,39.38
2018-09-26T09:58:25.142Z,39.38
2018-09-26T09:59:25.160Z,39.38
2018-09-26T10:00:25.174Z,45.00
2018-09-26T10:01:25.193Z,45.00
2018-09-26T10:02:25.265Z,45.00
2018-09-26T10:03:25.229Z,45.00
2018-09-26T10:04:25.245Z,45.00
2018-09-26T10:05:25.264Z,45.00
2018-09-26T10:06:25.281Z,45.00
2018-09-26T10:07:25.301Z,45.00
2018-09-26T10:08:25.416Z,45.00
2018-09-26T10:09:25.437Z,45.00
2018-09-26T10:10:25.357Z,45.00
2018-09-26T10:11:25.371Z,45.00
2018-09-26T10:12:25.389Z,45.00
2018-09-26T10:13:25.409Z,45.00
2018-09-26T10:14:25.483Z,45.00
2018-09-26T10:15:25.445Z,45.00
2018-09-26T10:16:25.461Z,45.00
2018-09-26T10:17:25.495Z,45.00
2018-09-26T10:18:25.499Z,45.00
2018-09-26T10:19:25.518Z,45.00
2018-09-26T10:20:25.553Z,45.00
2018-09-26T10:21:25.557Z,45.00
2018-09-26T10:22:25.576Z,45.00
2018-09-26T10:23:25.594Z,45.00
2018-09-26T10:24:25.609Z,45.00
2018-09-26T10:25:25.629Z,45.00
2018-09-26T10:26:25.735Z,45.00
2018-09-26T10:27:25.666Z,45.00
2018-09-26T10:28:25.697Z,45.00
2018-09-26T10:29:25.702Z,45.00
2018-09-26T10:30:25.729Z,45.00
2018-09-26T10:31:25.742Z,45.00
2018-09-26T10:32:25.826Z,45.00
2018-09-26T10:33:25.779Z,45.00
2018-09-26T10:34:25.796Z,45.00
2018-09-26T10:35:25.821Z,45.00
2018-09-26T10:36:25.834Z,45.00
2018-09-26T10:37:25.855Z,45.00
2018-09-26T10:38:25.908Z,45.00
2018-09-26T10:39:25.893Z,45.00
2018-09-26T10:40:25.911Z,45.00
2018-09-26T10:41:25.931Z,45.00
2018-09-26T10:42:25.948Z,45.00
2018-09-26T10:43:25.969Z,50.63
2018-09-26T10:44:25.988Z,50.63
2018-09-26T10:45:26.007Z,50.63
2018-09-26T10:46:26.026Z,50.63
2018-09-26T10:47:26.046Z,50.63
2018-09-26T10:48:26.067Z,56.25
2018-09-26T10:49:26.086Z,50.63
2018-09-26T10:50:26.205Z,56.25
2018-09-26T10:51:26.126Z,50.63
2018-09-26T10:52:26.141Z,50.63
2018-09-26T10:53:26.162Z,50.63
2018-09-26T10:54:26.181Z,50.63
2018-09-26T10:55:26.201Z,50.63
2018-09-26T10:56:26.316Z,50.63
2018-09-26T10:57:26.242Z,50.63
2018-09-26T10:58:26.260Z,50.63
2018-09-26T10:59:26.280Z,50.63
2018-09-26T11:00:26.298Z,50.63
2018-09-26T11:01:26.317Z,50.63
2018-09-26T11:02:26.389Z,50.63
2018-09-26T11:03:26.360Z,50.63
2018-09-26T11:04:26.442Z,50.63
2018-09-26T11:05:26.397Z,50.63
2018-09-26T11:06:26.417Z,50.63
2018-09-26T11:07:26.443Z,50.63
2018-09-26T11:08:26.657Z,50.63
2018-09-26T11:09:26.477Z,50.63
2018-09-26T11:10:26.617Z,50.63
2018-09-26T11:11:26.517Z,50.63
2018-09-26T11:12:26.540Z,50.63
2018-09-26T11:13:26.557Z,50.63
2018-09-26T11:14:26.575Z,50.63
2018-09-26T11:15:26.675Z,50.63
2018-09-26T11:16:26.716Z,50.63
2018-09-26T11:17:26.635Z,56.25
2018-09-26T11:18:26.654Z,56.25
2018-09-26T11:19:26.677Z,56.25
2018-09-26T11:20:26.693Z,56.25
2018-09-26T11:21:26.713Z,56.25
2018-09-26T11:22:26.869Z,56.25
2018-09-26T11:23:26.756Z,56.25
2018-09-26T11:24:26.775Z,56.25
2018-09-26T11:25:26.794Z,56.25
2018-09-26T11:26:26.974Z,56.25
2018-09-26T11:27:26.834Z,56.25
2018-09-26T11:28:26.903Z,56.25
2018-09-26T11:29:26.874Z,56.25
2018-09-26T11:30:26.943Z,56.25
2018-09-26T11:31:26.912Z,56.25
2018-09-26T11:32:27.022Z,56.25
2018-09-26T11:33:27.052Z,56.25
2018-09-26T11:34:26.995Z,56.25
2018-09-26T11:35:26.993Z,56.25
2018-09-26T11:36:27.012Z,56.25
2018-09-26T11:37:27.033Z,56.25
2018-09-26T11:38:27.089Z,56.25
2018-09-26T11:39:27.076Z,56.25
2018-09-26T11:40:27.093Z,56.25
2018-09-26T11:41:27.113Z,56.25
2018-09-26T11:42:27.135Z,56.25
2018-09-26T11:43:27.156Z,56.25
2018-09-26T11:44:27.290Z,56.25
2018-09-26T11:45:27.194Z,56.25
2018-09-26T11:46:27.228Z,56.25
2018-09-26T11:47:27.237Z,56.25
2018-09-26T11:48:27.255Z,56.25
2018-09-26T11:49:27.327Z,56.25
2018-09-26T11:50:27.297Z,56.25
2018-09-26T11:51:27.318Z,56.25
2018-09-26T11:52:27.350Z,56.25
2018-09-26T11:53:27.359Z,56.25
2018-09-26T11:54:27.479Z,56.25
2018-09-26T11:55:27.400Z,56.25
2018-09-26T11:56:27.452Z,56.25
2018-09-26T11:57:27.438Z,56.25
2018-09-26T11:58:27.605Z,56.25
2018-09-26T11:59:27.483Z,56.25
2018-09-26T12:00:27.501Z,56.25
2018-09-26T12:01:27.522Z,56.25
2018-09-26T12:02:27.640Z,56.25
2018-09-26T12:03:27.561Z,56.25
2018-09-26T12:04:27.582Z,56.25
2018-09-26T12:05:27.603Z,56.25
2018-09-26T12:06:27.623Z,56.25
2018-09-26T12:07:27.691Z,56.25
2018-09-26T12:08:27.807Z,56.25
2018-09-26T12:09:27.687Z,56.25
2018-09-26T12:10:27.707Z,56.25
2018-09-26T12:11:27.725Z,56.25
2018-09-26T12:12:27.745Z,56.25
2018-09-26T12:13:27.766Z,56.25
2018-09-26T12:14:27.788Z,56.25
2018-09-26T12:15:27.805Z,56.25
2018-09-26T12:16:27.828Z,56.25
2018-09-26T12:17:27.849Z,56.25
2018-09-26T12:18:27.869Z,56.25
2018-09-26T12:19:27.936Z,56.25
2018-09-26T12:20:27.914Z,56.25
2018-09-26T12:21:30.739Z,56.25
2018-09-26T12:22:28.012Z,61.88
2018-09-26T12:23:27.975Z,61.88
2018-09-26T12:24:27.998Z,61.88
2018-09-26T12:25:28.018Z,61.88
2018-09-26T12:26:28.041Z,67.50
2018-09-26T12:27:28.060Z,67.50
2018-09-26T12:28:28.079Z,61.88
2018-09-26T12:29:28.100Z,61.88
2018-09-26T12:30:28.123Z,61.88
2018-09-26T12:31:28.143Z,67.50
2018-09-26T12:32:28.166Z,67.50
2018-09-26T12:33:28.186Z,67.50
2018-09-26T12:34:28.214Z,61.88
2018-09-26T12:35:28.235Z,61.88
2018-09-26T12:36:28.274Z,61.88
2018-09-26T12:37:28.275Z,61.88
2018-09-26T12:38:28.297Z,61.88
2018-09-26T12:39:28.318Z,61.88
2018-09-26T12:40:28.350Z,61.88
2018-09-26T12:41:28.363Z,61.88
2018-09-26T12:42:28.384Z,61.88
2018-09-26T12:43:28.406Z,61.88
2018-09-26T12:44:28.428Z,61.88
2018-09-26T12:45:28.452Z,61.88
2018-09-26T12:46:28.488Z,61.88
2018-09-26T12:47:28.500Z,61.88
2018-09-26T12:48:28.600Z,61.88
2018-09-26T12:49:28.539Z,67.50
2018-09-26T12:50:28.560Z,67.50
2018-09-26T12:51:28.588Z,67.50
2018-09-26T12:52:28.605Z,67.50
2018-09-26T12:53:28.653Z,67.50
2018-09-26T12:54:28.647Z,67.50
2018-09-26T12:55:28.709Z,67.50
2018-09-26T12:56:28.696Z,67.50
2018-09-26T12:57:28.717Z,67.50
2018-09-26T12:58:28.741Z,67.50
2018-09-26T12:59:28.759Z,67.50
2018-09-26T13:00:28.877Z,67.50
2018-09-26T13:01:28.806Z,67.50
2018-09-26T13:02:28.899Z,67.50
2018-09-26T13:03:28.849Z,67.50
2018-09-26T13:04:28.870Z,67.50
2018-09-26T13:05:28.892Z,67.50
2018-09-26T13:06:28.916Z,67.50